createdAt,value
2018-11-26T00:00:50.286Z,99.30
2018-11-26T00:03:18.535Z,99.80
2018-11-26T00:05:46.889Z,99.80
2018-11-26T00:08:15.124Z,99.60
2018-11-26T00:10:54.772Z,99.80
2018-11-26T00:13:23.068Z,99.40
2018-11-26T00:15:51.378Z,99.70
2018-11-26T00:18:19.591Z,99.60
2018-11-26T00:20:47.887Z,99.90
2018-11-26T00:23:16.154Z,99.90
2018-11-26T00:25:44.384Z,99.90
2018-11-26T00:28:12.706Z,99.90
2018-11-26T00:30:40.990Z,99.90
2018-11-26T00:33:09.251Z,99.90
2018-11-26T00:35:37.508Z,99.90
2018-11-26T00:38:05.823Z,99.90
2018-11-26T00:40:34.076Z,99.90
2018-11-26T00:43:02.360Z,99.90
2018-11-26T00:45:30.698Z,99.90
2018-11-26T00:47:58.951Z,99.90
2018-11-26T00:50:27.220Z,99.90
2018-11-26T00:52:55.460Z,99.90
2018-11-26T00:55:23.712Z,99.90
2018-11-26T00:57:52.115Z,99.90
2018-11-26T01:00:20.485Z,99.90
2018-11-26T01:02:48.724Z,99.90
2018-11-26T01:05:28.292Z,99.90
2018-11-26T01:07:57.385Z,99.90
2018-11-26T01:10:25.703Z,99.90
2018-11-26T01:12:53.967Z,99.90
2018-11-26T01:18:13.231Z,99.90
2018-11-26T01:20:41.447Z,99.90
2018-11-26T01:23:09.737Z,99.90
2018-11-26T01:25:37.967Z,99.90
2018-11-26T01:28:06.676Z,99.90
2018-11-26T01:30:35.363Z,99.90
2018-11-26T01:33:03.604Z,99.90
2018-11-26T01:35:31.929Z,99.90
2018-11-26T01:38:00.154Z,99.90
2018-11-26T01:40:33.836Z,99.90
2018-11-26T01:43:02.069Z,99.90
2018-11-26T01:45:30.339Z,99.90
2018-11-26T01:47:58.591Z,99.90
2018-11-26T01:50:26.824Z,99.90
2018-11-26T01:52:55.066Z,99.90
2018-11-26T01:55:23.447Z,99.90
2018-11-26T01:57:51.722Z,99.90
2018-11-26T02:00:24.317Z,99.90
2018-11-26T02:02:52.584Z,99.90
2018-11-26T02:05:20.863Z,99.90
2018-11-26T02:07:49.161Z,99.90
2018-11-26T02:10:18.539Z,99.90
2018-11-26T02:12:46.807Z,99.90
2018-11-26T02:15:47.112Z,99.90
2018-11-26T02:18:15.325Z,99.90
2018-11-26T02:20:43.599Z,99.90
2018-11-26T02:23:11.867Z,99.90
2018-11-26T02:25:40.124Z,99.90
2018-11-26T02:28:08.336Z,99.90
2018-11-26T02:30:36.633Z,99.90
2018-11-26T02:33:04.930Z,99.90
2018-11-26T02:35:33.176Z,99.90
2018-11-26T02:38:01.483Z,99.90
2018-11-26T02:40:30.949Z,99.90
2018-11-26T02:42:59.247Z,99.80
2018-11-26T02:45:28.747Z,99.90
2018-11-26T02:47:56.963Z,99.90
2018-11-26T02:50:25.189Z,99.90
2018-11-26T02:52:53.415Z,99.90
2018-11-26T02:55:21.718Z,99.90
2018-11-26T02:57:50.416Z,99.90
2018-11-26T03:00:18.638Z,99.90
2018-11-26T03:02:46.859Z,99.90
2018-11-26T03:05:23.615Z,99.90
2018-11-26T03:07:52.203Z,99.90
2018-11-26T03:10:20.449Z,99.90
2018-11-26T03:12:48.688Z,99.90
2018-11-26T03:15:16.952Z,99.90
2018-11-26T03:17:45.201Z,99.90
2018-11-26T03:20:13.458Z,99.90
2018-11-26T03:22:41.727Z,99.90
2018-11-26T03:25:10.988Z,99.90
2018-11-26T03:27:39.270Z,99.90
2018-11-26T03:30:12.942Z,99.90
2018-11-26T03:32:41.336Z,99.90
2018-11-26T03:35:10.326Z,99.90
2018-11-26T03:37:38.620Z,99.90
2018-11-26T03:40:09.984Z,99.90
2018-11-26T03:42:38.275Z,99.90
2018-11-26T03:45:10.190Z,99.90
2018-11-26T03:47:38.443Z,99.90
2018-11-26T03:50:06.965Z,99.90
2018-11-26T03:52:35.256Z,99.90
2018-11-26T03:55:03.723Z,99.90
2018-11-26T03:57:31.985Z,99.90
2018-11-26T04:00:00.245Z,99.90
2018-11-26T04:02:28.543Z,99.90
2018-11-26T04:04:56.871Z,99.90
2018-11-26T04:07:25.132Z,99.80
2018-11-26T04:09:53.398Z,99.80
2018-11-26T04:12:21.674Z,99.90
2018-11-26T04:14:50.156Z,99.90
2018-11-26T04:17:18.400Z,99.90
2018-11-26T04:19:46.653Z,99.90
2018-11-26T04:22:14.848Z,99.90
2018-11-26T04:24:43.211Z,99.90
2018-11-26T04:27:11.460Z,99.90
2018-11-26T04:29:39.699Z,99.90
2018-11-26T04:32:07.920Z,99.90
2018-11-26T04:34:36.203Z,99.90
2018-11-26T04:37:05.508Z,99.90
2018-11-26T04:39:33.715Z,99.90
2018-11-26T04:42:08.983Z,99.70
2018-11-26T04:44:37.335Z,99.60
2018-11-26T04:47:05.557Z,99.60
2018-11-26T04:49:33.802Z,99.70
2018-11-26T04:52:02.033Z,99.70
2018-11-26T04:54:30.297Z,99.60
2018-11-26T04:56:58.513Z,99.50
2018-11-26T04:59:27.017Z,99.40
2018-11-26T05:01:55.457Z,99.60
2018-11-26T05:04:23.938Z,99.60
2018-11-26T05:06:52.151Z,99.40
2018-11-26T05:09:20.400Z,99.30
2018-11-26T05:11:48.639Z,99.30
2018-11-26T05:14:16.897Z,99.50
2018-11-26T05:16:45.124Z,99.40
2018-11-26T05:19:13.468Z,99.40
2018-11-26T05:21:41.765Z,99.30
2018-11-26T05:24:10.083Z,99.40
2018-11-26T05:26:38.331Z,99.30
2018-11-26T05:29:06.707Z,99.20
2018-11-26T05:31:34.936Z,99.30
2018-11-26T05:34:03.212Z,99.20
2018-11-26T05:36:31.432Z,99.20
2018-11-26T05:38:59.734Z,99.00
2018-11-26T05:41:27.956Z,99.30
2018-11-26T05:43:56.188Z,99.20
2018-11-26T05:46:24.399Z,99.10
2018-11-26T05:48:52.643Z,99.30
2018-11-26T05:51:20.884Z,99.30
2018-11-26T05:53:49.172Z,99.10
2018-11-26T05:56:17.397Z,99.30
2018-11-26T05:58:45.649Z,99.30
2018-11-26T06:01:13.865Z,99.50
2018-11-26T06:03:42.291Z,99.40
2018-11-26T06:06:10.541Z,99.40
2018-11-26T06:08:38.801Z,99.30
2018-11-26T06:11:07.068Z,99.20
2018-11-26T06:13:35.363Z,99.10
2018-11-26T06:16:03.589Z,99.00
2018-11-26T06:18:31.829Z,99.10
2018-11-26T06:21:00.116Z,99.20
2018-11-26T06:23:28.379Z,99.00
2018-11-26T06:26:03.140Z,98.90
2018-11-26T06:28:31.403Z,99.30
2018-11-26T06:30:59.734Z,99.20
2018-11-26T06:33:27.973Z,99.30
2018-11-26T06:35:56.267Z,99.30
2018-11-26T06:38:24.762Z,99.30
2018-11-26T06:40:53.043Z,99.20
2018-11-26T06:43:21.293Z,99.30
2018-11-26T06:45:56.089Z,99.70
2018-11-26T06:48:24.347Z,99.70
2018-11-26T06:50:52.567Z,99.60
2018-11-26T06:53:20.812Z,99.90
2018-11-26T06:55:49.542Z,99.90
2018-11-26T06:58:18.400Z,99.60
2018-11-26T07:00:46.913Z,99.70
2018-11-26T07:03:15.655Z,99.30
2018-11-26T07:05:44.316Z,99.10
2018-11-26T07:08:13.394Z,98.10
2018-11-26T07:10:42.067Z,98.50
2018-11-26T07:13:11.504Z,98.60
2018-11-26T07:15:40.535Z,98.60
2018-11-26T07:18:09.471Z,98.40
2018-11-26T07:20:38.540Z,98.20
2018-11-26T07:23:07.534Z,98.10
2018-11-26T07:25:36.475Z,98.40
2018-11-26T07:28:07.402Z,98.40
2018-11-26T07:30:38.168Z,98.60
2018-11-26T07:33:06.772Z,98.80
2018-11-26T07:35:35.072Z,99.00
2018-11-26T07:38:03.316Z,99.10
2018-11-26T07:40:31.609Z,99.10
2018-11-26T07:43:04.645Z,98.90
2018-11-26T07:45:32.946Z,99.00
2018-11-26T07:48:01.432Z,98.80
2018-11-26T07:50:29.698Z,98.90
2018-11-26T07:52:57.973Z,98.90
2018-11-26T07:55:26.299Z,99.00
2018-11-26T07:57:54.572Z,98.90
2018-11-26T08:00:29.610Z,98.90
2018-11-26T08:02:59.631Z,98.80
2018-11-26T08:05:28.001Z,98.80
2018-11-26T08:07:56.296Z,98.90
2018-11-26T08:10:24.857Z,98.90
2018-11-26T08:12:54.314Z,98.80
2018-11-26T08:15:25.759Z,98.60
2018-11-26T08:17:54.226Z,98.60
2018-11-26T08:20:23.400Z,98.70
2018-11-26T08:22:51.808Z,98.60
2018-11-26T08:25:21.415Z,98.70
2018-11-26T08:27:50.064Z,98.70
2018-11-26T08:30:23.036Z,98.70
2018-11-26T08:32:53.412Z,98.70
2018-11-26T08:35:21.851Z,98.50
2018-11-26T08:37:55.545Z,98.60
2018-11-26T08:40:28.049Z,98.40
2018-11-26T08:43:15.477Z,98.50
2018-11-26T08:45:55.615Z,98.30
2018-11-26T08:48:26.273Z,98.30
2018-11-26T08:50:56.046Z,98.20
2018-11-26T08:53:24.454Z,98.00
2018-11-26T08:55:53.048Z,98.10
2018-11-26T08:58:21.660Z,98.20
2018-11-26T09:00:55.254Z,98.20
2018-11-26T09:03:28.172Z,98.30
2018-11-26T09:06:01.566Z,98.20
2018-11-26T09:08:31.661Z,98.20
2018-11-26T09:11:00.367Z,98.20
2018-11-26T09:13:28.733Z,98.00
2018-11-26T09:15:57.237Z,98.20
2018-11-26T09:18:25.492Z,98.00
2018-11-26T09:20:53.902Z,98.00
2018-11-26T09:23:28.606Z,97.80
2018-11-26T09:25:57.258Z,97.90
2018-11-26T09:28:25.603Z,97.40
2018-11-26T09:30:54.197Z,97.30
2018-11-26T09:33:22.591Z,97.30
2018-11-26T09:35:50.975Z,97.40
2018-11-26T10:01:54.083Z,97.30
2018-11-26T10:04:23.081Z,96.10
2018-11-26T10:06:51.352Z,95.80
2018-11-26T10:09:19.866Z,95.70
2018-11-26T10:11:48.690Z,96.10
2018-11-26T10:14:17.196Z,95.90
2018-11-26T10:16:45.442Z,95.70
2018-11-26T10:19:13.712Z,95.80
2018-11-26T10:21:42.569Z,95.90
2018-11-26T10:24:10.981Z,95.80
2018-11-26T10:26:40.605Z,95.90
2018-11-26T10:29:09.163Z,95.70
2018-11-26T10:31:37.552Z,95.80
2018-11-26T10:34:07.058Z,95.50
2018-11-26T10:36:35.532Z,95.80
2018-11-26T10:39:06.065Z,95.70
2018-11-26T10:41:34.443Z,95.50
2018-11-26T10:44:02.726Z,95.40
2018-11-26T10:46:31.231Z,95.30
2018-11-26T10:48:59.531Z,95.30
2018-11-26T10:51:28.542Z,95.30
2018-11-26T10:53:56.937Z,95.30
2018-11-26T10:56:25.486Z,95.20
2018-11-26T10:58:53.959Z,95.10
2018-11-26T11:01:27.484Z,95.20
2018-11-26T11:03:55.815Z,95.20
2018-11-26T11:06:24.688Z,95.30
2018-11-26T11:08:54.785Z,95.30
2018-11-26T11:11:23.525Z,95.50
2018-11-26T11:13:51.505Z,95.20
2018-11-26T11:16:19.978Z,95.30
2018-11-26T11:18:48.551Z,95.60
2018-11-26T11:21:16.827Z,95.90
2018-11-26T11:23:45.068Z,96.00
2018-11-26T11:26:14.099Z,95.80
2018-11-26T11:28:43.993Z,95.90
2018-11-26T11:31:12.258Z,96.00
2018-11-26T11:33:40.563Z,96.10
2018-11-26T11:36:08.871Z,96.30
2018-11-26T11:38:37.406Z,96.20
2018-11-26T11:41:06.189Z,95.90
2018-11-26T11:43:34.582Z,95.90
2018-11-26T11:46:02.906Z,95.90
2018-11-26T11:48:31.175Z,95.90
2018-11-26T11:50:59.616Z,95.70
2018-11-26T11:53:28.013Z,95.80
2018-11-26T11:55:56.709Z,95.80
2018-11-26T11:58:24.940Z,96.00
2018-11-26T12:00:53.193Z,96.10
2018-11-26T12:03:21.646Z,96.10
2018-11-26T12:05:49.956Z,96.30
2018-11-26T12:08:18.184Z,96.60
2018-11-26T12:10:46.463Z,96.70
2018-11-26T12:13:15.361Z,96.70
2018-11-26T12:15:47.187Z,97.00
2018-11-26T12:18:15.389Z,97.10
2018-11-26T12:20:43.646Z,97.30
2018-11-26T12:23:11.987Z,97.30
2018-11-26T12:25:40.312Z,97.40
2018-11-26T12:28:08.616Z,97.70
2018-11-26T12:30:39.605Z,97.60
2018-11-26T12:33:07.932Z,97.70
2018-11-26T12:35:36.195Z,98.00
2018-11-26T12:38:04.503Z,98.10
2018-11-26T12:40:32.733Z,98.30
2018-11-26T12:43:02.192Z,98.30
2018-11-26T12:45:31.903Z,98.60
2018-11-26T12:48:00.325Z,98.10
2018-11-26T12:50:28.926Z,98.20
2018-11-26T12:52:57.278Z,98.00
2018-11-26T12:55:25.821Z,97.90
2018-11-26T12:58:00.864Z,97.80
2018-11-26T13:00:29.582Z,97.80
2018-11-26T13:03:08.156Z,98.00
2018-11-26T13:05:37.142Z,98.00
2018-11-26T13:08:05.492Z,97.90
2018-11-26T13:10:33.730Z,98.00
2018-11-26T13:13:02.219Z,98.10
2018-11-26T13:15:30.501Z,98.00
2018-11-26T13:17:58.810Z,97.70
2018-11-26T13:20:28.499Z,97.80
2018-11-26T13:22:56.872Z,97.60
2018-11-26T13:25:29.256Z,97.80
2018-11-26T13:28:00.343Z,97.70
2018-11-26T13:30:32.893Z,97.90
2018-11-26T13:33:02.386Z,97.50
2018-11-26T13:35:30.832Z,97.50
2018-11-26T13:37:59.153Z,97.30
2018-11-26T13:40:27.446Z,97.50
2018-11-26T13:42:55.658Z,97.70
2018-11-26T13:45:30.714Z,97.80
2018-11-26T13:47:59.034Z,97.70
2018-11-26T13:50:29.862Z,98.00
2018-11-26T13:52:58.140Z,97.90
2018-11-26T13:55:26.687Z,98.10
2018-11-26T13:57:54.865Z,98.00
2018-11-26T14:00:23.169Z,98.00
2018-11-26T14:02:51.490Z,97.80
2018-11-26T14:05:19.989Z,98.30
2018-11-26T14:07:48.354Z,98.30
2018-11-26T14:10:22.866Z,98.20
2018-11-26T14:12:54.742Z,98.20
2018-11-26T14:15:23.000Z,98.10
2018-11-26T14:17:51.316Z,98.00
2018-11-26T14:20:19.581Z,98.10
2018-11-26T14:22:47.809Z,97.90
2018-11-26T14:25:16.999Z,97.70
2018-11-26T14:27:45.679Z,97.70
2018-11-26T14:30:15.936Z,97.50
2018-11-26T14:32:44.283Z,97.40
2018-11-26T14:35:12.517Z,97.50
2018-11-26T14:37:40.811Z,97.70
2018-11-26T14:40:15.072Z,97.60
2018-11-26T14:42:43.294Z,97.80
2018-11-26T14:45:13.209Z,97.80
2018-11-26T14:47:41.772Z,97.80
2018-11-26T14:50:13.023Z,97.90
2018-11-26T14:52:42.552Z,97.60
2018-11-26T14:55:13.957Z,97.80
2018-11-26T14:57:42.336Z,97.90
2018-11-26T15:00:16.070Z,97.80
2018-11-26T15:02:44.349Z,97.90
2018-11-26T15:05:12.938Z,97.90
2018-11-26T15:07:41.387Z,97.70
2018-11-26T15:10:12.073Z,97.50
2018-11-26T15:12:40.596Z,97.30
2018-11-26T15:15:11.059Z,97.30
2018-11-26T15:17:39.602Z,97.30
2018-11-26T15:20:12.986Z,97.50
2018-11-26T15:22:41.299Z,97.50
2018-11-26T15:25:11.213Z,97.50
2018-11-26T15:27:39.776Z,97.50
2018-11-26T15:30:12.242Z,97.40
2018-11-26T15:32:40.612Z,97.40
2018-11-26T15:35:11.544Z,97.40
2018-11-26T15:37:39.880Z,97.50
2018-11-26T15:40:09.327Z,97.20
2018-11-26T15:42:37.863Z,97.30
2018-11-26T15:45:13.461Z,97.50
2018-11-26T15:47:41.708Z,97.30
2018-11-26T15:50:10.112Z,97.30
2018-11-26T15:52:38.548Z,97.20
2018-11-26T15:55:08.706Z,97.10
2018-11-26T15:57:37.108Z,97.20
2018-11-26T16:00:09.385Z,97.20
2018-11-26T16:05:16.246Z,97.20
2018-11-26T16:07:44.839Z,96.90
2018-11-26T16:10:13.846Z,97.00
2018-11-26T16:12:42.908Z,97.10
2018-11-26T16:15:15.829Z,96.90
2018-11-26T16:17:44.114Z,96.80
2018-11-26T16:20:16.562Z,96.90
2018-11-26T16:22:44.904Z,96.90
2018-11-26T16:25:15.570Z,97.00
2018-11-26T16:27:43.892Z,96.80
2018-11-26T16:30:17.028Z,96.70
2018-11-26T16:32:49.658Z,97.00
2018-11-26T16:35:19.440Z,97.20
2018-11-26T16:37:47.717Z,97.20
2018-11-26T16:40:16.954Z,97.20
2018-11-26T16:42:45.189Z,97.10
2018-11-26T16:45:14.743Z,97.10
2018-11-26T16:47:43.544Z,97.10
2018-11-26T16:50:19.789Z,97.00
2018-11-26T16:52:48.226Z,97.10
2018-11-26T16:55:17.131Z,96.90
2018-11-26T16:57:46.130Z,97.00
2018-11-26T17:00:17.648Z,96.90
2018-11-26T17:02:47.029Z,96.80
2018-11-26T17:05:17.582Z,96.80
2018-11-26T17:07:45.885Z,96.70
2018-11-26T17:10:14.221Z,96.80
2018-11-26T17:12:42.531Z,96.80
2018-11-26T17:15:12.452Z,96.80
2018-11-26T17:17:40.797Z,96.80
2018-11-26T17:20:10.611Z,96.90
2018-11-26T17:22:38.916Z,96.90
2018-11-26T17:25:09.636Z,96.90
2018-11-26T17:27:39.044Z,96.70
2018-11-26T17:30:11.304Z,96.80
2018-11-26T17:32:39.581Z,96.80
2018-11-26T17:35:09.114Z,96.70
2018-11-26T17:37:42.634Z,96.90
2018-11-26T17:40:07.987Z,96.80
2018-11-26T17:42:36.373Z,96.80
2018-11-26T17:45:04.849Z,96.90
2018-11-26T17:47:33.177Z,96.80
2018-11-26T17:50:01.572Z,96.90
2018-11-26T17:52:29.923Z,97.00
2018-11-26T17:54:58.235Z,97.10
2018-11-26T17:57:26.551Z,97.30
2018-11-26T17:59:54.875Z,97.30
2018-11-26T18:02:23.210Z,97.40
2018-11-26T18:04:51.576Z,97.20
2018-11-26T18:07:19.906Z,97.30
2018-11-26T18:09:48.267Z,97.30
2018-11-26T18:12:16.563Z,97.30
2018-11-26T18:14:44.976Z,97.00
2018-11-26T18:17:13.475Z,97.00
2018-11-26T18:19:41.783Z,97.00
2018-11-26T18:22:10.074Z,96.90
2018-11-26T18:24:38.757Z,97.10
2018-11-26T18:27:09.110Z,97.20
2018-11-26T18:29:37.630Z,97.30
2018-11-26T18:32:06.193Z,97.10
2018-11-26T18:34:34.563Z,97.20
2018-11-26T18:37:03.010Z,97.20
2018-11-26T18:39:31.372Z,97.30
2018-11-26T18:41:59.687Z,97.30
2018-11-26T18:44:28.027Z,97.30
2018-11-26T18:46:56.286Z,97.30
2018-11-26T18:49:24.590Z,97.40
2018-11-26T18:51:52.838Z,97.40
2018-11-26T18:54:21.150Z,97.30
2018-11-26T18:56:49.442Z,97.10
2018-11-26T18:59:17.857Z,97.50
2018-11-26T19:01:46.074Z,97.40
2018-11-26T19:04:14.425Z,97.40
2018-11-26T19:06:42.646Z,97.20
2018-11-26T19:09:10.942Z,97.50
2018-11-26T19:11:39.193Z,97.50
2018-11-26T19:14:12.745Z,97.50
2018-11-26T19:16:43.596Z,97.50
2018-11-26T19:19:11.934Z,97.30
2018-11-26T19:21:40.223Z,97.30
2018-11-26T19:24:08.544Z,97.10
2018-11-26T19:26:36.810Z,97.00
2018-11-26T19:29:05.538Z,96.90
2018-11-26T19:31:33.896Z,96.70
2018-11-26T19:34:02.237Z,97.00
2018-11-26T19:36:30.482Z,96.90
2018-11-26T19:38:58.881Z,97.10
2018-11-26T19:41:27.583Z,97.00
2018-11-26T19:43:55.910Z,97.00
2018-11-26T19:46:24.343Z,96.80
2018-11-26T19:48:52.591Z,97.00
2018-11-26T19:51:20.821Z,96.90
2018-11-26T19:53:49.468Z,97.20
2018-11-26T19:56:17.849Z,97.10
2018-11-26T19:58:46.107Z,97.50
2018-11-26T20:01:14.391Z,97.30
2018-11-26T20:06:25.263Z,97.30
2018-11-26T20:09:00.549Z,97.20
2018-11-26T20:11:33.237Z,97.10
2018-11-26T20:13:59.436Z,97.10
2018-11-26T20:16:32.812Z,97.10
2018-11-26T20:19:01.103Z,96.80
2018-11-26T20:21:29.345Z,96.80
2018-11-26T20:23:57.725Z,96.70
2018-11-26T20:26:26.015Z,96.80
2018-11-26T20:28:56.896Z,96.70
2018-11-26T20:31:22.672Z,96.80
2018-11-26T20:33:50.918Z,96.80
2018-11-26T20:36:19.251Z,96.50
2018-11-26T20:38:47.608Z,96.40
2018-11-26T20:41:16.893Z,96.20
2018-11-26T20:43:45.189Z,96.40
2018-11-26T20:46:13.488Z,96.30
2018-11-26T20:48:41.846Z,96.00
2018-11-26T20:51:10.166Z,96.20
2018-11-26T20:53:39.480Z,96.30
2018-11-26T20:56:10.609Z,96.30
2018-11-26T20:58:38.895Z,96.20
2018-11-26T21:01:07.198Z,96.20
2018-11-26T21:03:35.570Z,96.00
2018-11-26T21:06:03.825Z,95.80
2018-11-26T21:08:32.228Z,96.00
2018-11-26T21:11:00.618Z,95.90
2018-11-26T21:13:28.924Z,96.10
2018-11-26T21:15:57.251Z,96.20
2018-11-26T21:18:25.539Z,96.00
2018-11-26T21:20:53.838Z,96.30
2018-11-26T21:23:25.596Z,96.20
2018-11-26T21:25:54.745Z,96.20
2018-11-26T21:28:23.351Z,96.10
2018-11-26T21:30:52.298Z,96.00
2018-11-26T21:33:19.983Z,96.10
2018-11-26T21:35:48.213Z,96.20
2018-11-26T21:38:16.486Z,96.10
2018-11-26T21:43:19.419Z,96.10
2018-11-26T21:45:50.546Z,96.20
2018-11-26T21:48:18.922Z,96.20
2018-11-26T21:50:47.161Z,96.20
2018-11-26T21:53:15.415Z,96.10
2018-11-26T21:55:43.759Z,96.10
2018-11-26T21:58:12.089Z,96.10
2018-11-26T22:00:41.113Z,96.10
2018-11-26T22:03:13.399Z,96.10
2018-11-26T22:05:42.713Z,96.00
2018-11-26T22:08:11.425Z,95.90
2018-11-26T22:10:42.083Z,95.70
2018-11-26T22:13:11.850Z,95.90
2018-11-26T22:15:40.247Z,95.90
2018-11-26T22:18:08.848Z,95.90
2018-11-26T22:20:37.163Z,96.20
2018-11-26T22:23:06.066Z,96.20
2018-11-26T22:25:34.417Z,96.30
2018-11-26T22:30:42.669Z,96.20
2018-11-26T22:33:10.984Z,96.10
2018-11-26T22:35:39.270Z,96.20
2018-11-26T22:38:07.622Z,96.10
2018-11-26T22:40:35.942Z,96.30
2018-11-26T22:43:04.301Z,96.10
2018-11-26T22:45:33.554Z,96.20
2018-11-26T22:48:09.390Z,96.20
2018-11-26T22:50:40.732Z,96.10
2018-11-26T22:53:09.487Z,96.40
2018-11-26T22:55:37.804Z,96.40
2018-11-26T22:58:08.462Z,96.60
2018-11-26T23:00:43.527Z,96.30
2018-11-26T23:03:14.201Z,96.50
2018-11-26T23:05:42.720Z,96.30
2018-11-26T23:08:10.989Z,96.60
2018-11-26T23:10:39.259Z,96.60
2018-11-26T23:13:08.371Z,96.70
2018-11-26T23:15:36.725Z,96.50
2018-11-26T23:18:05.745Z,96.40
2018-11-26T23:20:34.073Z,96.50
2018-11-26T23:23:02.347Z,96.50
2018-11-26T23:25:30.617Z,96.70
2018-11-26T23:27:59.435Z,96.40
2018-11-26T23:30:28.814Z,96.50
2018-11-26T23:32:59.058Z,96.20
2018-11-26T23:35:27.398Z,96.30
2018-11-26T23:37:55.702Z,96.40
2018-11-26T23:40:24.056Z,96.50
2018-11-26T23:42:52.355Z,96.80
2018-11-26T23:45:22.899Z,96.60
2018-11-26T23:47:51.155Z,96.50
2018-11-26T23:50:19.483Z,96.60
2018-11-26T23:52:47.888Z,96.40
2018-11-26T23:55:20.247Z,96.60
2018-11-26T23:57:48.489Z,96.50
